Time;durP1;ratioP1;P1;durP2;ratioP2;P2;SDS_P1;SDS_P2;PMS_P1;PMS_P2;Temp;Humidity;BMP_temperature;BMP_pressure;BME280_temperature;BME280_humidity;BME280_pressure;Samples;Min_cycle;Max_cycle;Signal;HPM_P1;HPM_P2
2021/11/18 00:00:34;;;;;;;22.13;11.27;;;;;;;10.24;85.85;99144.81;5140890;27;20035;-92
2021/11/18 00:03:00;;;;;;;18.48;9.90;;;;;;;10.25;86.20;99170.47;5136031;27;20134;-93
2021/11/18 00:05:27;;;;;;;19.15;10.52;;;;;;;10.13;86.84;99160.06;5135871;27;20047;-92
2021/11/18 00:07:54;;;;;;;22.85;10.48;;;;;;;10.19;87.06;99174.16;5135485;27;20039;-93
2021/11/18 00:10:24;;;;;;;20.90;10.77;;;;;;;10.23;86.74;99174.94;5135697;27;20054;-93
2021/11/18 00:12:51;;;;;;;23.75;10.05;;;;;;;10.07;86.97;99147.78;5135571;27;20043;-93
2021/11/18 00:15:18;;;;;;;18.25;9.85;;;;;;;10.22;86.65;99157.25;5134292;27;20062;-90
2021/11/18 00:17:44;;;;;;;18.50;8.98;;;;;;;10.17;86.72;99153.78;5135853;27;20552;-92
2021/11/18 00:20:13;;;;;;;17.67;9.90;;;;;;;10.15;86.86;99155.59;5135285;28;20163;-95
2021/11/18 00:22:39;;;;;;;19.10;9.05;;;;;;;10.14;86.72;99167.16;5135401;27;20080;-92
2021/11/18 00:25:07;;;;;;;16.95;8.80;;;;;;;10.30;86.39;99181.94;5135016;28;20063;-92
2021/11/18 00:27:34;;;;;;;17.58;9.35;;;;;;;10.31;86.47;99183.69;5135643;28;20035;-93
2021/11/18 00:30:00;;;;;;;19.02;9.57;;;;;;;10.24;86.58;99180.25;5134966;28;20043;-93
2021/11/18 00:32:26;;;;;;;16.38;9.07;;;;;;;10.32;86.31;99193.41;5134209;28;20040;-93
2021/11/18 00:34:52;;;;;;;19.00;8.30;;;;;;;10.30;86.59;99187.25;5135192;28;20472;-93
2021/11/18 00:37:17;;;;;;;17.50;9.65;;;;;;;10.30;86.41;99189.03;5134782;28;20031;-93
2021/11/18 00:39:43;;;;;;;16.35;8.85;;;;;;;10.24;86.80;99182.03;5135376;28;20104;-94
2021/11/18 00:42:09;;;;;;;16.15;9.48;;;;;;;10.20;86.44;99170.56;5135266;28;20107;-93
2021/11/18 00:44:37;;;;;;;17.05;8.90;;;;;;;10.24;86.40;99171.41;5135373;28;20054;-93
2021/11/18 00:47:03;;;;;;;16.10;8.75;;;;;;;10.36;86.32;99189.78;5136056;27;20054;-93
2021/11/18 00:49:29;;;;;;;18.63;9.10;;;;;;;10.29;86.64;99180.19;5139293;27;20488;-93
2021/11/18 00:51:55;;;;;;;18.80;8.82;;;;;;;10.29;86.60;99190.81;5139759;27;20053;-93
2021/11/18 00:54:21;;;;;;;15.80;8.10;;;;;;;10.29;86.46;99188.16;5139533;27;20129;-91
2021/11/18 00:56:47;;;;;;;17.83;8.68;;;;;;;10.32;85.96;99180.09;5128966;27;20771;-93
2021/11/18 00:59:13;;;;;;;15.38;7.85;;;;;;;10.36;86.11;99186.25;5139723;27;20138;-92
2021/11/18 01:04:42;;;;;;;14.75;8.43;;;;;;;10.36;86.08;99187.13;5112334;27;20376;-95
2021/11/18 01:07:08;;;;;;;20.70;9.70;;;;;;;10.43;85.61;99198.50;5112516;28;20086;-94
2021/11/18 01:09:34;;;;;;;18.70;9.15;;;;;;;10.25;86.05;99184.63;5112437;28;20067;-94
2021/11/18 01:12:00;;;;;;;16.77;8.70;;;;;;;10.36;86.25;99197.75;5112333;28;20042;-94
2021/11/18 01:14:26;;;;;;;16.55;8.18;;;;;;;10.18;86.15;99182.13;5112756;28;20040;-94
2021/11/18 01:16:52;;;;;;;15.48;8.30;;;;;;;10.25;86.06;99187.28;5111900;28;20043;-94
2021/11/18 01:19:18;;;;;;;17.00;9.40;;;;;;;10.41;85.52;99205.63;5112144;28;20073;-92
2021/11/18 01:21:47;;;;;;;15.07;8.25;;;;;;;10.47;84.92;99201.09;5112497;28;20040;-92
2021/11/18 01:24:13;;;;;;;14.90;7.88;;;;;;;10.36;84.98;99191.56;5112271;28;20103;-94
2021/11/18 01:26:39;;;;;;;15.77;7.90;;;;;;;10.32;84.77;99189.88;5112735;28;20065;-94
2021/11/18 01:29:05;;;;;;;15.68;7.78;;;;;;;10.29;85.11;99188.16;5112318;28;20100;-95
2021/11/18 01:31:32;;;;;;;16.90;8.43;;;;;;;10.22;85.69;99189.16;5112343;28;20040;-93
2021/11/18 01:33:59;;;;;;;13.18;7.57;;;;;;;10.22;86.21;99205.97;5113032;28;20101;-95
2021/11/18 01:36:24;;;;;;;15.88;8.48;;;;;;;10.14;86.36;99201.69;5112592;28;20504;-95
2021/11/18 01:38:52;;;;;;;14.75;7.85;;;;;;;10.14;86.29;99202.56;5111995;28;20040;-95
2021/11/18 01:41:21;;;;;;;16.67;8.65;;;;;;;10.18;86.17;99212.25;5111864;28;20072;-92
2021/11/18 01:43:49;;;;;;;16.23;8.27;;;;;;;10.07;86.59;99199.16;5111954;28;20047;-94
2021/11/18 01:46:18;;;;;;;14.57;8.70;;;;;;;10.01;86.51;99195.72;5111730;28;20123;-93
2021/11/18 01:48:45;;;;;;;15.25;8.27;;;;;;;10.19;86.21;99224.66;5111849;28;20039;-94
2021/11/18 01:51:11;;;;;;;19.08;8.35;;;;;;;10.05;86.39;99211.59;5112233;28;20040;-94
2021/11/18 01:53:41;;;;;;;14.07;8.02;;;;;;;10.04;86.44;99199.22;5112098;28;20050;-92
2021/11/18 01:56:15;;;;;;;19.23;9.18;;;;;;;10.03;86.36;99199.25;5112625;28;20070;-94
2021/11/18 01:58:43;;;;;;;16.50;8.82;;;;;;;10.12;86.46;99212.34;5111749;28;20371;-94
2021/11/18 02:01:09;;;;;;;15.48;8.63;;;;;;;10.25;86.09;99221.84;5112056;28;20097;-94
2021/11/18 02:03:36;;;;;;;14.05;7.85;;;;;;;10.19;85.77;99211.34;5111334;28;20071;-93
2021/11/18 02:06:06;;;;;;;15.43;8.45;;;;;;;10.18;85.74;99206.06;5111964;28;20042;-94
2021/11/18 02:08:31;;;;;;;;;;;;;;;10.32;85.56;99230.63;5111956;28;20130;-91
2021/11/18 02:14:00;;;;;;;16.98;8.45;;;;;;;10.27;85.53;99225.34;5112231;27;20373;-93
2021/11/18 02:16:27;;;;;;;15.70;8.20;;;;;;;10.19;85.27;99208.69;5112167;28;20040;-92
2021/11/18 02:18:53;;;;;;;17.48;7.65;;;;;;;10.27;85.54;99225.34;5112378;28;20043;-94
2021/11/18 02:21:21;;;;;;;13.98;7.55;;;;;;;10.17;85.67;99214.91;5112610;28;20044;-94
2021/11/18 02:23:49;;;;;;;13.27;7.93;;;;;;;10.05;85.95;99198.28;5112849;28;20040;-94
2021/11/18 02:26:19;;;;;;;16.05;8.52;;;;;;;10.06;86.26;99209.78;5112194;28;20048;-94
2021/11/18 02:28:50;;;;;;;17.27;8.05;;;;;;;10.13;86.20;99221.19;5112662;28;20044;-94
2021/11/18 02:31:25;;;;;;;17.45;8.20;;;;;;;10.16;86.44;99222.03;5112163;28;20064;-94
2021/11/18 02:33:52;;;;;;;17.40;7.93;;;;;;;10.15;86.18;99219.38;5112641;28;20389;-94
2021/11/18 02:36:20;;;;;;;19.27;8.30;;;;;;;10.10;86.01;99206.19;5112147;28;20044;-94
2021/11/18 02:38:46;;;;;;;15.00;8.02;;;;;;;10.14;85.89;99212.31;5112379;28;20043;-94
2021/11/18 02:41:14;;;;;;;15.07;8.13;;;;;;;9.99;86.12;99197.53;5112090;28;20036;-94
2021/11/18 02:43:41;;;;;;;16.17;8.38;;;;;;;9.99;86.03;99197.53;5112595;28;20044;-94
2021/11/18 02:46:08;;;;;;;16.50;8.60;;;;;;;9.83;86.95;99196.94;5112131;28;20047;-93
2021/11/18 02:48:34;;;;;;;17.08;8.73;;;;;;;10.00;87.70;99224.09;5111943;28;20123;-93
2021/11/18 02:51:03;;;;;;;16.75;8.75;;;;;;;9.87;87.86;99215.44;5111789;28;20135;-94
2021/11/18 02:53:32;;;;;;;;;;;;;;;9.83;88.23;99227.03;5112505;28;20039;-93
2021/11/18 02:55:59;;;;;;;18.10;7.95;;;;;;;9.82;88.07;99219.97;5112073;28;20434;-94
2021/11/18 02:58:26;;;;;;;17.40;9.05;;;;;;;9.74;87.97;99197.97;5112122;28;20500;-94
2021/11/18 03:00:55;;;;;;;15.95;8.15;;;;;;;9.73;87.74;99188.22;5112063;28;20050;-94
2021/11/18 03:03:24;;;;;;;19.90;9.07;;;;;;;9.79;87.73;99197.88;5112002;28;20497;-94
2021/11/18 03:05:51;;;;;;;18.65;8.80;;;;;;;9.76;87.89;99189.94;5111853;28;20044;-94
2021/11/18 03:08:18;;;;;;;17.27;8.60;;;;;;;9.79;87.98;99197.88;5111852;28;20078;-94
2021/11/18 03:10:45;;;;;;;18.38;9.40;;;;;;;9.75;87.86;99209.47;5111873;28;20050;-94
2021/11/18 03:13:11;;;;;;;16.83;8.55;;;;;;;9.79;88.44;99227.97;5111449;28;20044;-94
2021/11/18 03:15:37;;;;;;;18.38;9.15;;;;;;;9.76;88.46;99221.81;5111908;28;20036;-93
2021/11/18 03:18:03;;;;;;;15.70;8.30;;;;;;;9.60;88.37;99202.63;5111525;28;20046;-94
2021/11/18 03:20:30;;;;;;;17.73;8.23;;;;;;;9.78;88.20;99225.34;5111945;28;20039;-92
2021/11/18 03:22:57;;;;;;;17.02;8.88;;;;;;;9.81;88.10;99222.66;5111662;28;20043;-94
2021/11/18 03:25:25;;;;;;;16.02;8.48;;;;;;;9.69;88.14;99213.09;5097153;28;20135;-92
2021/11/18 03:27:53;;;;;;;16.80;8.40;;;;;;;9.65;88.36;99200.78;5097890;28;20044;-94
2021/11/18 03:30:24;;;;;;;15.35;8.25;;;;;;;9.75;88.25;99199.72;5096778;28;20579;-92
2021/11/18 03:32:51;;;;;;;18.13;9.10;;;;;;;9.80;88.40;99221.78;5085102;28;20040;-94
2021/11/18 03:35:18;;;;;;;15.70;8.80;;;;;;;9.79;88.50;99206.72;5097626;28;20047;-91
2021/11/18 03:37:44;;;;;;;18.70;8.95;;;;;;;9.89;87.84;99207.47;5097391;28;20075;-96
2021/11/18 03:40:11;;;;;;;16.45;9.60;;;;;;;9.96;88.02;99232.13;5097459;28;20502;-92
2021/11/18 03:42:37;;;;;;;17.20;8.98;;;;;;;9.77;88.62;99200.56;5097788;28;20072;-93
2021/11/18 03:45:05;;;;;;;18.50;9.13;;;;;;;9.86;88.35;99208.38;5096993;28;20044;-94
2021/11/18 03:47:31;;;;;;;18.90;9.45;;;;;;;9.78;88.73;99188.16;5097638;28;20078;-95
2021/11/18 03:49:57;;;;;;;18.75;9.85;;;;;;;9.80;89.02;99211.16;5097653;28;20047;-94
2021/11/18 03:52:23;;;;;;;18.42;9.95;;;;;;;9.92;89.14;99230.44;5097355;28;20094;-94
2021/11/18 03:54:49;;;;;;;17.73;9.48;;;;;;;9.83;89.11;99210.22;5097127;28;20501;-93
2021/11/18 03:57:15;;;;;;;17.33;9.35;;;;;;;9.96;88.92;99222.38;5097113;28;20493;-93
2021/11/18 03:59:46;;;;;;;14.85;8.52;;;;;;;9.92;88.62;99196.78;5097342;28;20048;-94
2021/11/18 04:02:13;;;;;;;15.63;8.02;;;;;;;10.00;88.08;99208.16;5096808;28;20428;-94
2021/11/18 04:04:42;;;;;;;17.27;8.88;;;;;;;9.97;88.60;99205.53;5096966;28;20043;-95
2021/11/18 04:07:10;;;;;;;18.70;8.90;;;;;;;9.85;88.63;99211.94;5094261;28;20052;-94
2021/11/18 04:09:37;;;;;;;18.30;8.27;;;;;;;9.83;88.26;99189.84;5097724;28;20104;-95
2021/11/18 04:12:04;;;;;;;18.55;8.40;;;;;;;9.96;88.53;99203.78;5096788;28;20047;-95
2021/11/18 04:14:32;;;;;;;16.17;8.55;;;;;;;9.99;88.36;99222.31;5096857;28;20039;-95
2021/11/18 04:16:58;;;;;;;16.80;7.68;;;;;;;9.82;88.49;99196.06;5096579;28;20417;-94
2021/11/18 04:19:25;;;;;;;15.02;8.32;;;;;;;9.97;88.58;99225.91;5096917;28;20039;-94
2021/11/18 04:21:53;;;;;;;17.85;8.52;;;;;;;9.99;88.44;99238.25;5096388;28;20040;-94
2021/11/18 04:24:22;;;;;;;17.77;8.27;;;;;;;9.92;88.38;99223.34;5097045;28;20501;-93
2021/11/18 04:26:49;;;;;;;15.68;8.35;;;;;;;9.90;88.86;99230.44;5097236;28;20450;-92
2021/11/18 04:29:17;;;;;;;14.13;8.52;;;;;;;9.76;89.25;99233.34;5096886;28;20587;-93
2021/11/18 04:31:43;;;;;;;16.63;8.63;;;;;;;9.57;89.98;99214.16;5096925;28;20561;-94
2021/11/18 04:34:10;;;;;;;19.77;9.23;;;;;;;9.41;90.22;99212.66;5096529;28;20054;-92
2021/11/18 04:36:39;;;;;;;17.80;9.70;;;;;;;9.29;90.98;99220.81;5095325;28;20044;-95
2021/11/18 04:39:05;;;;;;;17.65;8.85;;;;;;;9.30;91.45;99235.81;5096535;28;20048;-94
2021/11/18 04:41:31;;;;;;;17.00;9.02;;;;;;;9.34;91.58;99250.81;5096206;28;20127;-94
2021/11/18 04:43:58;;;;;;;20.25;9.85;;;;;;;9.21;92.03;99250.09;5096529;28;20056;-93
2021/11/18 04:46:24;;;;;;;17.98;9.90;;;;;;;9.24;92.38;99244.75;5095429;28;20044;-94
2021/11/18 04:48:50;;;;;;;18.02;9.02;;;;;;;9.23;92.32;99235.91;5096463;28;20052;-93
2021/11/18 04:51:19;;;;;;;22.27;10.77;;;;;;;9.25;91.53;99246.50;5096242;28;20044;-93
2021/11/18 04:53:47;;;;;;;17.65;9.40;;;;;;;9.20;91.97;99270.47;5096480;28;20048;-92
2021/11/18 04:56:14;;;;;;;19.83;10.43;;;;;;;8.97;92.65;99261.91;5096103;28;20044;-95
2021/11/18 04:58:40;;;;;;;19.58;9.90;;;;;;;8.82;93.56;99245.28;5095890;28;20036;-94
2021/11/18 05:01:10;;;;;;;20.38;9.38;;;;;;;8.89;93.90;99235.50;5095511;28;20051;-94
2021/11/18 05:03:36;;;;;;;22.02;10.90;;;;;;;8.93;93.43;99239.84;5096067;28;20044;-95
2021/11/18 05:06:03;;;;;;;21.13;9.60;;;;;;;9.14;93.42;99261.69;5095706;28;20058;-94
2021/11/18 05:08:29;;;;;;;19.85;10.10;;;;;;;8.97;93.32;99238.03;5095968;28;20040;-94
2021/11/18 05:10:57;;;;;;;21.75;10.73;;;;;;;8.95;93.88;99253.09;5095695;28;20044;-94
2021/11/18 05:13:26;;;;;;;20.02;9.43;;;;;;;9.08;93.72;99256.47;5095518;28;20131;-92
2021/11/18 05:15:53;;;;;;;22.95;9.75;;;;;;;9.05;93.66;99244.13;5095752;28;20044;-94
2021/11/18 05:18:20;;;;;;;22.20;10.00;;;;;;;9.43;92.97;99282.50;5095396;28;20482;-93
2021/11/18 05:20:46;;;;;;;19.10;9.65;;;;;;;9.34;92.18;99259.63;5094948;28;20086;-95
2021/11/18 05:23:14;;;;;;;20.00;10.13;;;;;;;9.32;92.68;99258.78;5095482;28;20040;-91
2021/11/18 05:25:42;;;;;;;19.10;9.85;;;;;;;9.31;92.88;99250.88;5095144;28;20073;-93
2021/11/18 05:28:09;;;;;;;19.58;10.48;;;;;;;9.49;92.22;99261.19;5095748;28;20041;-93
2021/11/18 05:30:35;;;;;;;18.70;8.48;;;;;;;9.49;92.42;99257.66;5094837;28;20040;-95
2021/11/18 05:33:04;;;;;;;17.00;8.95;;;;;;;9.67;92.14;99273.31;5094941;28;20398;-93
2021/11/18 05:35:31;;;;;;;19.40;8.90;;;;;;;9.64;91.90;99258.31;5095659;28;20047;-94
2021/11/18 05:37:57;;;;;;;22.30;10.07;;;;;;;9.58;92.22;99263.69;5095808;28;20447;-94
2021/11/18 05:40:24;;;;;;;21.75;9.93;;;;;;;9.52;91.83;99254.94;5095228;28;20050;-93
2021/11/18 05:42:51;;;;;;;20.63;10.68;;;;;;;9.65;92.63;99294.59;5095260;28;20036;-93
2021/11/18 05:45:21;;;;;;;20.85;9.38;;;;;;;9.80;92.11;99295.25;5094072;28;20048;-94
2021/11/18 05:47:47;;;;;;;22.35;9.95;;;;;;;9.63;91.95;99276.94;5095165;28;20465;-94
2021/11/18 05:50:14;;;;;;;20.13;11.00;;;;;;;9.72;92.14;99303.34;5094965;28;20115;-93
2021/11/18 05:52:41;;;;;;;21.55;10.27;;;;;;;9.49;92.28;99282.44;5094886;28;20893;-92
2021/11/18 05:55:09;;;;;;;20.92;10.10;;;;;;;9.58;92.54;99314.16;5095195;28;20082;-93
2021/11/18 05:57:35;;;;;;;21.90;10.93;;;;;;;9.46;93.11;99306.38;5095213;28;20061;-93
2021/11/18 06:00:04;;;;;;;20.38;10.05;;;;;;;9.49;92.56;99318.72;5094734;28;20040;-94
2021/11/18 06:02:31;;;;;;;;;;;;;;;9.59;92.63;99325.69;5095641;28;20547;-93
2021/11/18 06:04:57;;;;;;;21.80;10.98;;;;;;;9.47;92.70;99310.78;5094664;28;20333;-91
2021/11/18 06:07:23;;;;;;;19.50;9.75;;;;;;;9.45;92.48;99301.94;5090250;28;20126;-92
2021/11/18 06:09:49;;;;;;;19.02;9.40;;;;;;;9.47;92.44;99313.44;5095281;28;20048;-93
2021/11/18 06:12:17;;;;;;;20.05;9.95;;;;;;;9.43;93.00;99328.53;5094913;28;20052;-93
2021/11/18 06:14:43;;;;;;;25.42;11.02;;;;;;;9.39;93.17;99317.97;5096628;28;20074;-93
2021/11/18 06:17:09;;;;;;;21.30;9.43;;;;;;;9.63;92.95;99356.59;5096297;28;20075;-94
2021/11/18 06:19:36;;;;;;;24.70;10.55;;;;;;;9.76;92.62;99349.31;5096785;28;20044;-92
2021/11/18 06:22:03;;;;;;;18.38;8.73;;;;;;;9.83;91.83;99335.94;5096248;28;20119;-94
2021/11/18 06:24:29;;;;;;;23.13;10.80;;;;;;;9.86;91.73;99335.00;5096528;28;20051;-93
2021/11/18 06:26:57;;;;;;;20.42;9.80;;;;;;;10.02;90.77;99354.25;5096195;28;20044;-93
2021/11/18 06:29:23;;;;;;;15.93;8.70;;;;;;;9.94;90.60;99346.41;5096152;28;20036;-94
2021/11/18 06:31:52;;;;;;;17.52;8.98;;;;;;;10.02;90.87;99371.06;5096389;28;20138;-93
2021/11/18 06:34:18;;;;;;;19.00;9.55;;;;;;;9.92;90.61;99371.22;5096309;28;20032;-94
2021/11/18 06:36:46;;;;;;;18.13;9.43;;;;;;;9.71;90.93;99356.47;5096153;28;20387;-93
2021/11/18 06:39:13;;;;;;;18.85;8.40;;;;;;;9.90;90.53;99357.09;5096104;28;20027;-94
2021/11/18 06:41:39;;;;;;;22.63;9.68;;;;;;;9.88;90.77;99359.75;5097350;28;20070;-93
2021/11/18 06:44:07;;;;;;;17.73;8.25;;;;;;;9.87;90.61;99364.22;5095753;28;20083;-92
2021/11/18 06:46:32;;;;;;;20.63;9.38;;;;;;;9.95;90.53;99366.72;5095225;28;20123;-93
2021/11/18 06:48:59;;;;;;;20.73;9.77;;;;;;;10.02;89.91;99365.75;5097541;28;20071;-92
2021/11/18 06:51:26;;;;;;;21.40;10.07;;;;;;;10.11;89.58;99385.13;5102494;28;20044;-92
2021/11/18 06:53:56;;;;;;;18.58;8.65;;;;;;;10.03;89.06;99361.31;5096664;28;20581;-93
2021/11/18 06:56:23;;;;;;;17.10;9.02;;;;;;;10.13;88.89;99380.63;5096407;28;20130;-92
2021/11/18 06:58:50;;;;;;;19.13;9.88;;;;;;;10.15;89.04;99392.13;5097546;28;20052;-93
2021/11/18 07:01:16;;;;;;;21.30;9.75;;;;;;;10.20;88.83;99398.28;5098611;28;20512;-94
2021/11/18 07:03:42;;;;;;;18.25;8.70;;;;;;;10.17;88.49;99388.56;5104290;28;20048;-92
2021/11/18 07:06:09;;;;;;;16.63;8.43;;;;;;;10.22;88.48;99401.78;5099740;28;20105;-93
2021/11/18 07:08:35;;;;;;;17.60;8.45;;;;;;;10.34;88.63;99412.22;5100703;28;20048;-95
2021/11/18 07:11:03;;;;;;;17.70;8.90;;;;;;;10.28;88.23;99380.44;5102516;28;20044;-94
2021/11/18 07:13:32;;;;;;;17.00;8.93;;;;;;;10.43;88.25;99382.88;5103307;28;20051;-93
2021/11/18 07:15:58;;;;;;;;;;;;;;;10.80;87.33;99415.91;5101392;28;20079;-95
2021/11/18 07:18:24;;;;;;;17.35;8.30;;;;;;;10.82;86.71;99407.03;5098742;28;20396;-93
2021/11/18 07:20:51;;;;;;;15.35;8.40;;;;;;;10.94;86.20;99419.22;5098499;28;20051;-94
2021/11/18 07:23:17;;;;;;;17.33;8.63;;;;;;;10.94;86.21;99413.03;5099153;28;20032;-93
2021/11/18 07:25:45;;;;;;;17.23;8.18;;;;;;;11.06;86.03;99413.66;5099244;28;20055;-95
2021/11/18 07:28:12;;;;;;;19.67;8.38;;;;;;;11.01;85.42;99402.22;5099073;28;20072;-95
2021/11/18 07:30:40;;;;;;;21.00;9.32;;;;;;;10.88;85.13;99385.59;5097853;28;20076;-94
2021/11/18 07:33:09;;;;;;;17.02;8.90;;;;;;;11.05;85.36;99403.03;5098288;28;20041;-94
2021/11/18 07:35:35;;;;;;;15.88;8.32;;;;;;;11.23;84.94;99428.44;5099214;28;20036;-94
2021/11/18 07:38:03;;;;;;;16.88;8.27;;;;;;;11.15;85.54;99406.44;5098761;28;20044;-93
2021/11/18 07:40:30;;;;;;;17.65;8.65;;;;;;;11.22;85.21;99397.41;5099374;28;20040;-95
2021/11/18 07:42:56;;;;;;;17.00;8.00;;;;;;;11.41;85.47;99421.88;5099512;28;20506;-94
2021/11/18 07:45:25;;;;;;;14.23;7.15;;;;;;;11.42;84.96;99397.00;5099349;28;20084;-94
2021/11/18 07:47:51;;;;;;;;;;;;;;;11.76;83.82;99438.94;5098386;28;20044;-94
2021/11/18 07:50:18;;;;;;;15.45;7.15;;;;;;;11.74;82.71;99420.31;5097809;28;19981;-93
2021/11/18 07:52:46;;;;;;;15.13;7.95;;;;;;;11.78;81.73;99414.00;5097891;28;20486;-94
2021/11/18 07:55:15;;;;;;;18.55;7.50;;;;;;;11.87;81.67;99416.47;5098162;28;20036;-94
2021/11/18 07:57:41;;;;;;;21.08;8.73;;;;;;;12.07;82.05;99432.03;5097775;28;20055;-95
2021/11/18 08:00:10;;;;;;;27.13;12.52;;;;;;;12.01;79.47;99418.84;5099532;28;20040;-94
2021/11/18 08:02:40;;;;;;;18.05;7.75;;;;;;;12.16;80.23;99430.94;5104453;28;20122;-93
2021/11/18 08:05:08;;;;;;;17.00;8.82;;;;;;;12.20;80.66;99437.97;5097368;28;20566;-92
2021/11/18 08:07:33;;;;;;;19.05;8.80;;;;;;;12.20;79.37;99426.44;5095900;28;20716;-93
2021/11/18 08:09:59;;;;;;;18.33;8.55;;;;;;;12.28;80.42;99452.00;5097179;28;20051;-94
2021/11/18 08:12:25;;;;;;;27.73;13.57;;;;;;;12.31;79.16;99437.72;5096633;28;20051;-93
2021/11/18 08:14:51;;;;;;;30.83;15.82;;;;;;;12.29;79.83;99447.53;5096518;28;20103;-92
2021/11/18 08:17:17;;;;;;;18.13;8.93;;;;;;;12.36;80.00;99465.19;5096572;28;20048;-93
2021/11/18 08:19:44;;;;;;;16.33;8.57;;;;;;;12.31;79.73;99446.59;5097162;28;20036;-94
2021/11/18 08:22:10;;;;;;;16.42;8.75;;;;;;;12.39;79.83;99440.22;5094059;28;20047;-94
2021/11/18 08:24:36;;;;;;;20.60;10.80;;;;;;;12.54;78.87;99448.72;5093852;28;20047;-93
2021/11/18 08:27:02;;;;;;;14.77;7.75;;;;;;;12.61;77.76;99440.56;5096463;28;20089;-94
2021/11/18 08:29:30;;;;;;;19.52;8.70;;;;;;;12.62;78.77;99447.66;5097141;28;20052;-93
2021/11/18 08:31:58;;;;;;;17.98;8.60;;;;;;;12.61;77.88;99429.91;5096755;28;20040;-93
2021/11/18 08:34:26;;;;;;;17.83;9.13;;;;;;;12.77;78.10;99433.91;5107777;28;20553;-94
2021/11/18 08:36:56;;;;;;;18.00;8.32;;;;;;;12.83;77.93;99452.44;5098198;28;20036;-94
2021/11/18 08:39:24;;;;;;;16.77;8.57;;;;;;;12.76;77.66;99440.19;5097214;28;20075;-94
2021/11/18 08:41:53;;;;;;;19.88;10.23;;;;;;;12.78;78.77;99466.84;5096226;28;20067;-91
2021/11/18 08:44:19;;;;;;;17.85;10.55;;;;;;;12.50;79.51;99444.38;5095865;28;20036;-94
2021/11/18 08:46:47;;;;;;;25.45;17.15;;;;;;;12.58;78.70;99435.28;5096802;28;20044;-94
2021/11/18 08:49:12;;;;;;;23.02;13.15;;;;;;;12.69;78.17;99444.81;5096887;28;20068;-93
2021/11/18 08:51:39;;;;;;;19.35;9.80;;;;;;;13.03;78.08;99467.09;5098566;28;20063;-93
2021/11/18 08:54:12;;;;;;;16.05;8.65;;;;;;;13.04;77.46;99458.16;5097136;28;20047;-95
2021/11/18 08:56:39;;;;;;;18.20;7.97;;;;;;;13.06;77.64;99462.56;5096841;28;20501;-95
2021/11/18 08:59:05;;;;;;;14.63;8.73;;;;;;;13.06;76.41;99440.31;5096906;28;20040;-94
2021/11/18 09:01:36;;;;;;;17.80;9.02;;;;;;;13.15;77.67;99462.31;5096192;28;20779;-95
2021/11/18 09:04:06;;;;;;;15.68;9.05;;;;;;;13.30;76.96;99446.81;5096726;28;20035;-94
2021/11/18 09:06:32;;;;;;;16.08;8.65;;;;;;;13.29;76.75;99472.66;5096444;28;20502;-93
2021/11/18 09:09:05;;;;;;;17.13;9.02;;;;;;;13.24;76.55;99463.84;5085720;28;20040;-93
2021/11/18 09:11:32;;;;;;;16.00;8.52;;;;;;;13.31;77.31;99470.81;5096082;28;20064;-95
2021/11/18 09:13:59;;;;;;;17.60;8.50;;;;;;;13.46;78.15;99471.31;5096209;28;20109;-95
2021/11/18 09:16:26;;;;;;;13.95;7.82;;;;;;;13.59;76.77;99467.38;5095629;28;20076;-94
2021/11/18 09:18:52;;;;;;;15.05;8.18;;;;;;;13.82;76.69;99481.91;5095625;28;20093;-93
2021/11/18 09:21:22;;;;;;;15.05;8.02;;;;;;;13.92;75.57;99492.28;5096375;28;20447;-93
2021/11/18 09:23:54;;;;;;;13.85;6.97;;;;;;;14.01;74.91;99496.50;5076440;28;20040;-94
2021/11/18 09:26:23;;;;;;;16.10;7.78;;;;;;;14.24;74.15;99495.78;5096795;28;20071;-93
2021/11/18 09:28:51;;;;;;;13.93;7.35;;;;;;;14.45;73.25;99504.09;5096899;28;20035;-94
2021/11/18 09:31:19;;;;;;;14.88;8.07;;;;;;;14.45;74.49;99488.91;5099953;28;20040;-92
2021/11/18 09:33:45;;;;;;;15.53;7.60;;;;;;;14.22;73.60;99480.72;5095966;28;20445;-94
2021/11/18 09:36:11;;;;;;;13.20;7.00;;;;;;;13.95;74.66;99491.31;5096335;28;20346;-95
2021/11/18 09:38:44;;;;;;;16.20;8.32;;;;;;;13.65;76.38;99491.25;5096669;28;20040;-94
2021/11/18 09:41:31;;;;;;;16.40;7.90;;;;;;;13.69;75.93;99487.59;5096791;28;20044;-96
2021/11/18 09:44:38;;;;;;;15.80;8.07;;;;;;;13.76;75.87;99523.91;5083390;28;20046;-93
2021/11/18 09:47:19;;;;;;;14.18;7.65;;;;;;;14.07;75.87;99508.78;5076770;28;20048;-94
2021/11/18 09:50:09;;;;;;;14.52;7.53;;;;;;;14.22;74.92;99504.78;5104427;28;20066;-92
2021/11/18 09:52:48;;;;;;;13.73;7.53;;;;;;;14.10;74.57;99496.22;5075702;28;20086;-94
2021/11/18 09:55:23;;;;;;;14.48;8.93;;;;;;;14.47;74.30;99505.78;5084755;28;20051;-95
2021/11/18 09:58:24;;;;;;;12.38;7.50;;;;;;;14.20;75.52;99502.13;5096463;28;20044;-94
2021/11/18 10:01:21;;;;;;;14.25;7.90;;;;;;;14.30;74.93;99532.19;5095123;28;20048;-93
2021/11/18 10:03:54;;;;;;;15.73;7.93;;;;;;;14.20;75.19;99502.13;5082300;28;20044;-95
2021/11/18 10:06:25;;;;;;;15.35;8.43;;;;;;;14.29;75.48;99509.00;5094856;28;20513;-93
2021/11/18 10:09:01;;;;;;;14.90;8.07;;;;;;;14.58;74.53;99508.16;5094772;28;20043;-92
2021/11/18 10:11:47;;;;;;;14.80;8.63;;;;;;;14.75;73.36;99521.88;5096865;28;20042;-93
2021/11/18 10:14:30;;;;;;;15.13;8.20;;;;;;;14.67;73.86;99528.41;5094411;28;20466;-94
2021/11/18 10:17:00;;;;;;;16.30;8.98;;;;;;;14.36;74.54;99508.78;5096474;28;20135;-94
2021/11/18 10:19:30;;;;;;;15.98;7.95;;;;;;;14.34;75.22;99516.00;5084346;28;20578;-95
2021/11/18 10:21:59;;;;;;;17.02;8.30;;;;;;;14.36;75.94;99489.19;5094879;28;20076;-93
2021/11/18 10:24:28;;;;;;;14.48;7.93;;;;;;;14.48;75.47;99499.50;5096003;28;20097;-95
2021/11/18 10:27:00;;;;;;;17.23;9.07;;;;;;;14.74;75.77;99533.50;5092683;28;20048;-95
2021/11/18 10:29:28;;;;;;;16.65;8.32;;;;;;;14.77;75.63;99500.44;5096111;28;20040;-94
2021/11/18 10:31:57;;;;;;;15.90;7.80;;;;;;;15.10;73.45;99500.22;5098111;28;20048;-94
2021/11/18 10:34:30;;;;;;;13.75;7.85;;;;;;;15.15;72.30;99512.53;5088024;28;20105;-94
2021/11/18 10:37:10;;;;;;;14.13;7.97;;;;;;;15.18;72.49;99511.56;5098592;28;20075;-95
2021/11/18 10:39:47;;;;;;;13.18;7.15;;;;;;;15.19;73.24;99490.06;5098124;28;20075;-94
2021/11/18 10:42:28;;;;;;;12.02;7.28;;;;;;;15.39;72.18;99494.72;5108664;28;20044;-94
2021/11/18 10:44:56;;;;;;;15.82;8.38;;;;;;;15.64;70.55;99519.81;5098842;28;20493;-94
2021/11/18 10:47:26;;;;;;;14.48;7.88;;;;;;;15.66;69.36;99515.22;5098270;28;20035;-94
2021/11/18 10:50:32;;;;;;;13.95;8.18;;;;;;;15.64;70.05;99493.88;5098437;28;20443;-95
2021/11/18 10:53:13;;;;;;;17.00;9.15;;;;;;;15.75;70.24;99517.66;5098133;28;20398;-95
2021/11/18 10:55:41;;;;;;;16.55;8.75;;;;;;;15.68;69.18;99508.00;5098720;28;20040;-94
2021/11/18 10:58:10;;;;;;;19.45;9.02;;;;;;;15.70;69.08;99520.47;5099854;28;20044;-95
2021/11/18 11:00:52;;;;;;;17.50;9.10;;;;;;;15.90;69.45;99509.03;5100597;28;20040;-96
2021/11/18 11:03:23;;;;;;;16.90;9.32;;;;;;;15.89;70.10;99485.81;5097244;28;20523;-95
2021/11/18 11:06:10;;;;;;;17.20;8.10;;;;;;;15.83;68.51;99507.53;5100342;28;20044;-93
2021/11/18 11:08:38;;;;;;;16.97;9.33;;;;;;;15.76;70.05;99506.84;5098234;28;20040;-93
2021/11/18 11:11:07;;;;;;;17.80;9.10;;;;;;;16.00;68.81;99504.19;5099195;28;20452;-94
2021/11/18 11:13:59;;;;;;;17.30;9.63;;;;;;;16.05;68.63;99502.22;5098639;28;20047;-94
2021/11/18 11:16:38;;;;;;;18.65;9.70;;;;;;;16.21;68.69;99491.78;5098017;28;20040;-94
2021/11/18 11:19:12;;;;;;;18.88;10.57;;;;;;;16.07;68.42;99505.72;5097861;28;20037;-94
2021/11/18 11:21:55;;;;;;;20.42;10.65;;;;;;;16.09;68.49;99511.91;5098118;28;20516;-94
2021/11/18 11:24:43;;;;;;;24.08;11.68;;;;;;;16.02;69.30;99486.22;5087340;28;20036;-95
2021/11/18 11:27:58;;;;;;;21.33;10.73;;;;;;;16.08;67.85;99501.22;5088977;28;20051;-93
2021/11/18 11:30:29;;;;;;;19.35;10.15;;;;;;;16.07;67.60;99503.03;5093113;28;20053;-95
2021/11/18 11:33:02;;;;;;;21.67;10.50;;;;;;;15.91;68.40;99478.59;5097930;28;20489;-94
2021/11/18 11:35:34;;;;;;;20.88;10.57;;;;;;;15.78;69.54;99486.22;5097431;28;20501;-94
2021/11/18 11:38:25;;;;;;;24.80;11.27;;;;;;;15.47;70.89;99490.91;5097021;28;20525;-96
2021/11/18 11:41:28;;;;;;;22.10;12.05;;;;;;;15.46;72.48;99497.19;5098826;28;20043;-93
2021/11/18 11:43:58;;;;;;;21.00;11.00;;;;;;;15.55;70.54;99488.84;5089004;28;20067;-93